createdAt,value
2018-09-01T00:05:09.231Z,23.6
2018-09-01T00:15:08.468Z,23.6
2018-09-01T00:25:07.712Z,23.3
2018-09-01T00:35:06.954Z,23.2
2018-09-01T00:45:06.195Z,23.1
2018-09-01T00:55:05.427Z,23
2018-09-01T01:05:04.670Z,23
2018-09-01T01:15:03.907Z,22.9
2018-09-01T01:25:03.146Z,22.9
2018-09-01T01:35:02.386Z,22.8
2018-09-01T01:45:01.626Z,22.8
2018-09-01T01:55:00.871Z,22.7
2018-09-01T02:05:00.109Z,22.6
2018-09-01T02:14:59.346Z,22.6
2018-09-01T02:24:58.586Z,22.5
2018-09-01T02:34:57.824Z,22.4
2018-09-01T02:44:57.065Z,22.4
2018-09-01T02:54:56.305Z,22.3
2018-09-01T03:04:55.541Z,22.3
2018-09-01T03:14:54.779Z,22.3
2018-09-01T03:24:54.018Z,22.2
2018-09-01T03:34:53.258Z,22.1
2018-09-01T03:44:52.500Z,22
2018-09-01T03:54:51.746Z,21.9
2018-09-01T04:04:50.980Z,21.9
2018-09-01T04:14:50.219Z,21.9
2018-09-01T04:24:49.455Z,21.8
2018-09-01T04:34:48.694Z,21.8
2018-09-01T04:44:47.933Z,21.9
2018-09-01T04:54:47.171Z,22
2018-09-01T05:04:46.407Z,22.3
2018-09-01T05:14:45.646Z,22.5
2018-09-01T05:24:44.882Z,22.8
2018-09-01T05:34:44.121Z,23.1
2018-09-01T05:44:43.358Z,23.4
2018-09-01T05:54:42.596Z,23.6
2018-09-01T06:04:41.842Z,23.7
2018-09-01T06:14:41.075Z,23.7
2018-09-01T06:24:40.310Z,23.6
2018-09-01T06:34:39.567Z,23.7
2018-09-01T06:44:38.785Z,23.8
2018-09-01T06:54:38.029Z,23.8
2018-09-01T07:04:37.261Z,23.9
2018-09-01T07:14:36.499Z,24.2
2018-09-01T07:24:35.739Z,24.7
2018-09-01T07:34:34.975Z,25.1
2018-09-01T07:44:34.213Z,25.4
2018-09-01T07:54:33.482Z,25.7
2018-09-01T08:04:32.739Z,26
2018-09-01T08:14:31.946Z,26.3
2018-09-01T08:24:31.170Z,26.4
2018-09-01T08:34:30.407Z,26.5
2018-09-01T08:44:29.650Z,26.6
2018-09-01T08:54:28.885Z,26.8
2018-09-01T09:04:28.128Z,26.8
2018-09-01T09:14:27.420Z,27
2018-09-01T09:24:26.661Z,27.2
2018-09-01T09:34:25.936Z,27.4
2018-09-01T09:44:25.089Z,27.6
2018-09-01T09:54:24.338Z,27.7
2018-09-01T10:04:23.575Z,27.8
2018-09-01T10:14:22.820Z,27.9
2018-09-01T10:24:22.062Z,28
2018-09-01T10:34:21.302Z,28.2
2018-09-01T10:44:20.552Z,28.2
2018-09-01T10:54:19.785Z,28.3
2018-09-01T11:04:19.026Z,28.4
2018-09-01T11:14:18.267Z,28.4
2018-09-01T11:24:17.511Z,28.4
2018-09-01T11:34:16.749Z,28.4
2018-09-01T11:44:15.993Z,28.4
2018-09-01T11:54:15.244Z,28.3
2018-09-01T12:04:14.474Z,28.3
2018-09-01T12:14:13.709Z,28.3
2018-09-01T12:24:12.950Z,28.3
2018-09-01T12:34:12.201Z,28.2
2018-09-01T12:44:11.436Z,28.2
2018-09-01T12:54:10.679Z,28.1
2018-09-01T13:04:09.922Z,28.1
2018-09-01T13:14:09.161Z,28
2018-09-01T13:24:08.403Z,27.9
2018-09-01T13:34:07.646Z,27.9
2018-09-01T13:44:06.894Z,27.9
2018-09-01T13:54:06.131Z,27.9
2018-09-01T14:04:05.390Z,27.9
2018-09-01T14:14:04.615Z,27.9
2018-09-01T14:24:03.913Z,27.9
2018-09-01T14:34:03.101Z,27.9
2018-09-01T14:44:02.345Z,27.8
2018-09-01T14:54:01.587Z,27.8
2018-09-01T15:04:00.828Z,27.8
2018-09-01T15:14:00.068Z,27.7
2018-09-01T15:23:59.303Z,27.6
2018-09-01T15:33:58.551Z,27.6
2018-09-01T15:43:57.788Z,27.6
2018-09-01T15:53:57.059Z,27.5
2018-09-01T16:03:56.269Z,27.4
2018-09-01T16:13:55.511Z,27.4
2018-09-01T16:23:54.749Z,27.4
2018-09-01T16:33:53.989Z,27.3
2018-09-01T16:43:53.225Z,27.3
2018-09-01T16:53:52.465Z,27.1
2018-09-01T17:03:51.705Z,27.1
2018-09-01T17:13:50.946Z,26.9
2018-09-01T17:23:50.192Z,26.7
2018-09-01T17:33:49.487Z,26.5
2018-09-01T17:43:48.676Z,26.4
2018-09-01T17:53:47.921Z,26.2
2018-09-01T18:03:47.158Z,26.1
2018-09-01T18:13:46.402Z,25.9
2018-09-01T18:23:45.647Z,25.9
2018-09-01T18:33:44.885Z,25.8
2018-09-01T18:43:44.139Z,25.7
2018-09-01T18:53:43.374Z,25.6
2018-09-01T19:03:42.621Z,25.6
2018-09-01T19:13:41.905Z,25.6
2018-09-01T19:23:41.098Z,25.5
2018-09-01T19:33:40.336Z,25.4
2018-09-01T19:43:39.581Z,25.4
2018-09-01T19:53:38.819Z,25.4
2018-09-01T20:03:38.062Z,25.4
2018-09-01T20:13:37.298Z,25.3
2018-09-01T20:23:36.542Z,25.3
2018-09-01T20:33:35.783Z,25.1
2018-09-01T20:43:35.022Z,25.1
2018-09-01T20:53:34.262Z,25
2018-09-01T21:03:33.503Z,24.9
2018-09-01T21:13:32.748Z,24.9
2018-09-01T21:23:31.983Z,24.9
2018-09-01T21:33:31.224Z,24.8
2018-09-01T21:43:30.461Z,24.8
2018-09-01T21:53:29.704Z,24.8
2018-09-01T22:03:28.940Z,24.7
2018-09-01T22:13:28.180Z,24.5
2018-09-01T22:23:27.420Z,24.4
2018-09-01T22:33:26.661Z,24.3
2018-09-01T22:43:25.904Z,24.2
2018-09-01T22:53:25.151Z,24.2
2018-09-01T23:03:24.384Z,24.1
2018-09-01T23:13:23.630Z,24.1
2018-09-01T23:23:22.867Z,24.1
2018-09-01T23:33:22.132Z,23.9
2018-09-01T23:43:21.349Z,23.8
2018-09-01T23:53:20.584Z,23.7
